sensor_id;sensor_type;location;lat;lon;timestamp;P1;durP1;ratioP1;P2;durP2;ratioP2
13331;SDS011;6735;51.456;12.626;2022-11-13T00:03:47;24.00;;;21.50;;
13331;SDS011;6735;51.456;12.626;2022-11-13T00:06:13;24.40;;;21.07;;
13331;SDS011;6735;51.456;12.626;2022-11-13T00:08:40;23.57;;;20.83;;
13331;SDS011;6735;51.456;12.626;2022-11-13T00:11:14;23.37;;;20.97;;
13331;SDS011;6735;51.456;12.626;2022-11-13T00:13:42;23.30;;;20.80;;
13331;SDS011;6735;51.456;12.626;2022-11-13T00:16:09;23.97;;;21.00;;
13331;SDS011;6735;51.456;12.626;2022-11-13T00:18:37;26.47;;;21.17;;
13331;SDS011;6735;51.456;12.626;2022-11-13T00:21:06;29.00;;;24.67;;
13331;SDS011;6735;51.456;12.626;2022-11-13T00:23:35;26.23;;;22.73;;
13331;SDS011;6735;51.456;12.626;2022-11-13T00:26:08;46.47;;;27.07;;
13331;SDS011;6735;51.456;12.626;2022-11-13T00:28:35;30.13;;;24.37;;
13331;SDS011;6735;51.456;12.626;2022-11-13T00:31:02;26.27;;;22.80;;
13331;SDS011;6735;51.456;12.626;2022-11-13T00:33:28;28.03;;;23.70;;
13331;SDS011;6735;51.456;12.626;2022-11-13T00:36:00;26.33;;;22.10;;
13331;SDS011;6735;51.456;12.626;2022-11-13T00:38:27;27.73;;;21.73;;
13331;SDS011;6735;51.456;12.626;2022-11-13T00:40:53;27.20;;;24.10;;
13331;SDS011;6735;51.456;12.626;2022-11-13T00:43:18;24.80;;;22.20;;
13331;SDS011;6735;51.456;12.626;2022-11-13T00:45:44;25.20;;;22.23;;
13331;SDS011;6735;51.456;12.626;2022-11-13T00:48:09;46.57;;;24.20;;
13331;SDS011;6735;51.456;12.626;2022-11-13T00:50:35;24.53;;;21.93;;
13331;SDS011;6735;51.456;12.626;2022-11-13T00:53:00;51.60;;;24.73;;
13331;SDS011;6735;51.456;12.626;2022-11-13T00:55:26;47.73;;;25.17;;
13331;SDS011;6735;51.456;12.626;2022-11-13T00:57:52;26.70;;;22.77;;
13331;SDS011;6735;51.456;12.626;2022-11-13T01:00:17;65.73;;;25.50;;
13331;SDS011;6735;51.456;12.626;2022-11-13T01:02:43;68.13;;;24.57;;
13331;SDS011;6735;51.456;12.626;2022-11-13T01:05:09;34.80;;;23.30;;
13331;SDS011;6735;51.456;12.626;2022-11-13T01:07:35;75.93;;;25.23;;
13331;SDS011;6735;51.456;12.626;2022-11-13T01:10:02;124.30;;;27.40;;
13331;SDS011;6735;51.456;12.626;2022-11-13T01:12:29;26.37;;;21.87;;
13331;SDS011;6735;51.456;12.626;2022-11-13T01:14:55;41.33;;;23.10;;
13331;SDS011;6735;51.456;12.626;2022-11-13T01:17:20;51.63;;;23.13;;
13331;SDS011;6735;51.456;12.626;2022-11-13T01:19:46;58.43;;;24.90;;
13331;SDS011;6735;51.456;12.626;2022-11-13T01:22:12;31.97;;;21.43;;
13331;SDS011;6735;51.456;12.626;2022-11-13T01:24:37;49.33;;;23.13;;
13331;SDS011;6735;51.456;12.626;2022-11-13T01:27:03;26.97;;;22.30;;
13331;SDS011;6735;51.456;12.626;2022-11-13T01:29:28;73.10;;;23.33;;
13331;SDS011;6735;51.456;12.626;2022-11-13T01:31:54;26.93;;;20.93;;
13331;SDS011;6735;51.456;12.626;2022-11-13T01:34:20;22.67;;;20.47;;
13331;SDS011;6735;51.456;12.626;2022-11-13T01:36:45;34.30;;;22.00;;
13331;SDS011;6735;51.456;12.626;2022-11-13T01:39:11;51.53;;;22.33;;
13331;SDS011;6735;51.456;12.626;2022-11-13T01:41:37;86.30;;;23.47;;
13331;SDS011;6735;51.456;12.626;2022-11-13T01:44:03;104.00;;;23.40;;
13331;SDS011;6735;51.456;12.626;2022-11-13T01:46:31;153.93;;;28.40;;
13331;SDS011;6735;51.456;12.626;2022-11-13T01:49:00;29.27;;;20.67;;
13331;SDS011;6735;51.456;12.626;2022-11-13T01:51:28;22.90;;;20.60;;
13331;SDS011;6735;51.456;12.626;2022-11-13T01:54:01;23.43;;;21.00;;
13331;SDS011;6735;51.456;12.626;2022-11-13T01:56:32;67.23;;;23.33;;
13331;SDS011;6735;51.456;12.626;2022-11-13T01:59:01;94.40;;;24.47;;
13331;SDS011;6735;51.456;12.626;2022-11-13T02:01:32;55.93;;;22.77;;
13331;SDS011;6735;51.456;12.626;2022-11-13T02:03:58;43.97;;;23.33;;
13331;SDS011;6735;51.456;12.626;2022-11-13T02:06:24;86.67;;;23.93;;
13331;SDS011;6735;51.456;12.626;2022-11-13T02:08:54;117.60;;;25.60;;
13331;SDS011;6735;51.456;12.626;2022-11-13T02:11:20;91.80;;;25.40;;
13331;SDS011;6735;51.456;12.626;2022-11-13T02:13:46;35.13;;;23.33;;
13331;SDS011;6735;51.456;12.626;2022-11-13T02:16:12;25.80;;;22.60;;
13331;SDS011;6735;51.456;12.626;2022-11-13T02:18:38;57.47;;;23.03;;
13331;SDS011;6735;51.456;12.626;2022-11-13T02:23:55;87.53;;;24.27;;
13331;SDS011;6735;51.456;12.626;2022-11-13T02:26:51;35.53;;;22.30;;
13331;SDS011;6735;51.456;12.626;2022-11-13T02:29:20;34.67;;;23.10;;
13331;SDS011;6735;51.456;12.626;2022-11-13T02:31:45;156.77;;;29.50;;
13331;SDS011;6735;51.456;12.626;2022-11-13T02:34:11;93.67;;;24.27;;
13331;SDS011;6735;51.456;12.626;2022-11-13T02:36:36;70.23;;;22.87;;
13331;SDS011;6735;51.456;12.626;2022-11-13T02:39:03;253.40;;;29.57;;
13331;SDS011;6735;51.456;12.626;2022-11-13T02:41:32;216.33;;;28.83;;
13331;SDS011;6735;51.456;12.626;2022-11-13T02:43:57;71.27;;;22.40;;
13331;SDS011;6735;51.456;12.626;2022-11-13T02:46:23;224.73;;;28.23;;
13331;SDS011;6735;51.456;12.626;2022-11-13T02:48:48;186.80;;;25.37;;
13331;SDS011;6735;51.456;12.626;2022-11-13T02:51:14;253.93;;;27.97;;
13331;SDS011;6735;51.456;12.626;2022-11-13T02:53:40;189.90;;;26.97;;
13331;SDS011;6735;51.456;12.626;2022-11-13T02:56:05;52.63;;;20.80;;
13331;SDS011;6735;51.456;12.626;2022-11-13T02:58:31;104.77;;;23.27;;
13331;SDS011;6735;51.456;12.626;2022-11-13T03:00:57;137.20;;;26.13;;
13331;SDS011;6735;51.456;12.626;2022-11-13T03:03:25;266.90;;;32.90;;
13331;SDS011;6735;51.456;12.626;2022-11-13T03:05:51;261.30;;;30.00;;
13331;SDS011;6735;51.456;12.626;2022-11-13T03:08:16;124.03;;;26.20;;
13331;SDS011;6735;51.456;12.626;2022-11-13T03:10:43;170.53;;;27.27;;
13331;SDS011;6735;51.456;12.626;2022-11-13T03:13:09;222.00;;;27.47;;
13331;SDS011;6735;51.456;12.626;2022-11-13T03:15:35;145.80;;;24.60;;
13331;SDS011;6735;51.456;12.626;2022-11-13T03:18:03;153.67;;;22.47;;
13331;SDS011;6735;51.456;12.626;2022-11-13T03:20:30;188.00;;;25.27;;
13331;SDS011;6735;51.456;12.626;2022-11-13T03:22:56;171.67;;;26.23;;
13331;SDS011;6735;51.456;12.626;2022-11-13T03:25:22;147.47;;;23.37;;
13331;SDS011;6735;51.456;12.626;2022-11-13T03:27:47;87.70;;;22.77;;
13331;SDS011;6735;51.456;12.626;2022-11-13T03:30:13;245.00;;;29.57;;
13331;SDS011;6735;51.456;12.626;2022-11-13T03:32:39;260.80;;;29.83;;
13331;SDS011;6735;51.456;12.626;2022-11-13T03:35:04;197.80;;;29.97;;
13331;SDS011;6735;51.456;12.626;2022-11-13T03:37:30;96.23;;;23.43;;
13331;SDS011;6735;51.456;12.626;2022-11-13T03:39:56;69.33;;;23.63;;
13331;SDS011;6735;51.456;12.626;2022-11-13T03:42:21;159.27;;;27.97;;
13331;SDS011;6735;51.456;12.626;2022-11-13T03:44:47;89.00;;;24.03;;
13331;SDS011;6735;51.456;12.626;2022-11-13T03:47:13;196.40;;;31.00;;
13331;SDS011;6735;51.456;12.626;2022-11-13T03:49:39;246.23;;;32.23;;
13331;SDS011;6735;51.456;12.626;2022-11-13T03:52:05;108.17;;;24.97;;
13331;SDS011;6735;51.456;12.626;2022-11-13T03:54:30;133.07;;;24.57;;
13331;SDS011;6735;51.456;12.626;2022-11-13T03:56:56;201.03;;;32.97;;
13331;SDS011;6735;51.456;12.626;2022-11-13T03:59:22;134.07;;;25.77;;
13331;SDS011;6735;51.456;12.626;2022-11-13T04:01:47;169.30;;;26.17;;
13331;SDS011;6735;51.456;12.626;2022-11-13T04:04:13;73.47;;;22.53;;
13331;SDS011;6735;51.456;12.626;2022-11-13T04:06:39;104.27;;;24.37;;
13331;SDS011;6735;51.456;12.626;2022-11-13T04:09:05;43.13;;;21.37;;
13331;SDS011;6735;51.456;12.626;2022-11-13T04:11:30;108.67;;;24.40;;
13331;SDS011;6735;51.456;12.626;2022-11-13T04:13:56;141.27;;;27.00;;
13331;SDS011;6735;51.456;12.626;2022-11-13T04:16:22;47.17;;;22.87;;
13331;SDS011;6735;51.456;12.626;2022-11-13T04:18:48;98.50;;;24.93;;
13331;SDS011;6735;51.456;12.626;2022-11-13T04:21:13;211.27;;;28.73;;
13331;SDS011;6735;51.456;12.626;2022-11-13T04:23:39;203.37;;;30.03;;
13331;SDS011;6735;51.456;12.626;2022-11-13T04:26:04;117.00;;;26.97;;
13331;SDS011;6735;51.456;12.626;2022-11-13T04:28:30;135.17;;;28.30;;
13331;SDS011;6735;51.456;12.626;2022-11-13T04:30:55;109.37;;;26.63;;
13331;SDS011;6735;51.456;12.626;2022-11-13T04:33:21;141.57;;;25.33;;
13331;SDS011;6735;51.456;12.626;2022-11-13T04:35:47;90.00;;;23.17;;
13331;SDS011;6735;51.456;12.626;2022-11-13T04:38:12;183.13;;;28.57;;
13331;SDS011;6735;51.456;12.626;2022-11-13T04:40:38;73.90;;;23.70;;
13331;SDS011;6735;51.456;12.626;2022-11-13T04:43:04;115.50;;;24.43;;
13331;SDS011;6735;51.456;12.626;2022-11-13T04:45:30;95.03;;;23.00;;
13331;SDS011;6735;51.456;12.626;2022-11-13T04:47:56;222.47;;;31.07;;
13331;SDS011;6735;51.456;12.626;2022-11-13T04:50:21;131.57;;;27.53;;
13331;SDS011;6735;51.456;12.626;2022-11-13T04:52:47;167.53;;;28.67;;
13331;SDS011;6735;51.456;12.626;2022-11-13T04:55:13;145.07;;;27.13;;
13331;SDS011;6735;51.456;12.626;2022-11-13T04:57:39;115.17;;;26.33;;
13331;SDS011;6735;51.456;12.626;2022-11-13T05:00:05;144.10;;;27.47;;
13331;SDS011;6735;51.456;12.626;2022-11-13T05:02:32;166.07;;;28.33;;
13331;SDS011;6735;51.456;12.626;2022-11-13T05:04:58;110.70;;;26.40;;
13331;SDS011;6735;51.456;12.626;2022-11-13T05:07:24;152.47;;;27.70;;
13331;SDS011;6735;51.456;12.626;2022-11-13T05:09:53;150.73;;;27.40;;
13331;SDS011;6735;51.456;12.626;2022-11-13T05:12:19;97.63;;;25.77;;
13331;SDS011;6735;51.456;12.626;2022-11-13T05:14:45;120.67;;;25.80;;
13331;SDS011;6735;51.456;12.626;2022-11-13T05:17:11;140.00;;;27.07;;
13331;SDS011;6735;51.456;12.626;2022-11-13T05:19:37;189.33;;;29.20;;
13331;SDS011;6735;51.456;12.626;2022-11-13T05:22:03;80.10;;;24.40;;
13331;SDS011;6735;51.456;12.626;2022-11-13T05:24:29;123.37;;;24.70;;
13331;SDS011;6735;51.456;12.626;2022-11-13T05:26:55;83.20;;;24.13;;
13331;SDS011;6735;51.456;12.626;2022-11-13T05:29:20;103.50;;;24.97;;
13331;SDS011;6735;51.456;12.626;2022-11-13T05:31:46;134.13;;;27.37;;
13331;SDS011;6735;51.456;12.626;2022-11-13T05:34:12;53.83;;;22.83;;
13331;SDS011;6735;51.456;12.626;2022-11-13T05:36:38;125.90;;;26.57;;
13331;SDS011;6735;51.456;12.626;2022-11-13T05:39:04;114.50;;;26.23;;
13331;SDS011;6735;51.456;12.626;2022-11-13T05:41:30;235.17;;;32.63;;
13331;SDS011;6735;51.456;12.626;2022-11-13T05:43:56;64.90;;;23.83;;
13331;SDS011;6735;51.456;12.626;2022-11-13T05:46:26;228.37;;;31.17;;
13331;SDS011;6735;51.456;12.626;2022-11-13T05:48:54;234.47;;;29.60;;
13331;SDS011;6735;51.456;12.626;2022-11-13T05:51:42;156.33;;;26.07;;
13331;SDS011;6735;51.456;12.626;2022-11-13T05:54:07;225.23;;;27.67;;
13331;SDS011;6735;51.456;12.626;2022-11-13T05:56:34;229.37;;;28.40;;
13331;SDS011;6735;51.456;12.626;2022-11-13T05:59:00;172.27;;;26.00;;
13331;SDS011;6735;51.456;12.626;2022-11-13T06:01:28;198.00;;;28.07;;
13331;SDS011;6735;51.456;12.626;2022-11-13T06:03:56;209.20;;;29.50;;
13331;SDS011;6735;51.456;12.626;2022-11-13T06:06:24;181.40;;;25.67;;
13331;SDS011;6735;51.456;12.626;2022-11-13T06:08:50;248.93;;;29.23;;
13331;SDS011;6735;51.456;12.626;2022-11-13T06:11:18;181.23;;;26.90;;
13331;SDS011;6735;51.456;12.626;2022-11-13T06:13:46;211.87;;;29.47;;
13331;SDS011;6735;51.456;12.626;2022-11-13T06:16:13;175.87;;;27.23;;
13331;SDS011;6735;51.456;12.626;2022-11-13T06:18:41;230.97;;;29.37;;
13331;SDS011;6735;51.456;12.626;2022-11-13T06:21:08;95.47;;;24.03;;
13331;SDS011;6735;51.456;12.626;2022-11-13T06:23:36;217.57;;;28.93;;
13331;SDS011;6735;51.456;12.626;2022-11-13T06:26:04;209.77;;;29.37;;
13331;SDS011;6735;51.456;12.626;2022-11-13T06:28:34;110.20;;;24.00;;
13331;SDS011;6735;51.456;12.626;2022-11-13T06:31:01;194.33;;;27.93;;
13331;SDS011;6735;51.456;12.626;2022-11-13T06:33:37;106.33;;;24.07;;
13331;SDS011;6735;51.456;12.626;2022-11-13T06:36:05;123.37;;;25.67;;
13331;SDS011;6735;51.456;12.626;2022-11-13T06:38:36;223.80;;;29.47;;
13331;SDS011;6735;51.456;12.626;2022-11-13T06:41:03;261.17;;;30.43;;
13331;SDS011;6735;51.456;12.626;2022-11-13T06:43:29;172.73;;;26.80;;
13331;SDS011;6735;51.456;12.626;2022-11-13T06:45:55;135.13;;;26.30;;
13331;SDS011;6735;51.456;12.626;2022-11-13T06:48:21;131.70;;;25.43;;
13331;SDS011;6735;51.456;12.626;2022-11-13T06:50:47;139.57;;;25.83;;
13331;SDS011;6735;51.456;12.626;2022-11-13T06:53:13;146.93;;;26.93;;
13331;SDS011;6735;51.456;12.626;2022-11-13T06:55:46;70.47;;;23.50;;
13331;SDS011;6735;51.456;12.626;2022-11-13T06:58:14;246.40;;;30.53;;
13331;SDS011;6735;51.456;12.626;2022-11-13T07:00:40;217.27;;;28.27;;
13331;SDS011;6735;51.456;12.626;2022-11-13T07:03:16;143.73;;;26.30;;
13331;SDS011;6735;51.456;12.626;2022-11-13T07:05:44;286.87;;;28.67;;
13331;SDS011;6735;51.456;12.626;2022-11-13T07:08:10;297.77;;;29.90;;
13331;SDS011;6735;51.456;12.626;2022-11-13T07:10:36;241.57;;;27.37;;
13331;SDS011;6735;51.456;12.626;2022-11-13T07:13:02;296.97;;;30.50;;
13331;SDS011;6735;51.456;12.626;2022-11-13T07:15:27;249.23;;;29.83;;
13331;SDS011;6735;51.456;12.626;2022-11-13T07:17:53;253.97;;;29.43;;
13331;SDS011;6735;51.456;12.626;2022-11-13T07:20:19;139.37;;;25.80;;
13331;SDS011;6735;51.456;12.626;2022-11-13T07:22:44;371.20;;;30.57;;
13331;SDS011;6735;51.456;12.626;2022-11-13T07:25:10;228.67;;;26.33;;
13331;SDS011;6735;51.456;12.626;2022-11-13T07:27:35;118.43;;;24.80;;
13331;SDS011;6735;51.456;12.626;2022-11-13T07:30:01;183.37;;;25.73;;
13331;SDS011;6735;51.456;12.626;2022-11-13T07:32:27;158.33;;;24.87;;
13331;SDS011;6735;51.456;12.626;2022-11-13T07:34:52;314.90;;;33.47;;
13331;SDS011;6735;51.456;12.626;2022-11-13T07:37:18;234.33;;;28.07;;
13331;SDS011;6735;51.456;12.626;2022-11-13T07:39:43;288.23;;;33.87;;
13331;SDS011;6735;51.456;12.626;2022-11-13T07:42:09;95.83;;;23.70;;
13331;SDS011;6735;51.456;12.626;2022-11-13T07:44:34;110.93;;;24.60;;
13331;SDS011;6735;51.456;12.626;2022-11-13T07:47:00;185.80;;;29.60;;
13331;SDS011;6735;51.456;12.626;2022-11-13T07:49:26;122.73;;;27.40;;
13331;SDS011;6735;51.456;12.626;2022-11-13T07:51:51;122.90;;;28.70;;
13331;SDS011;6735;51.456;12.626;2022-11-13T07:54:17;192.60;;;42.10;;
13331;SDS011;6735;51.456;12.626;2022-11-13T07:56:43;140.03;;;31.03;;
13331;SDS011;6735;51.456;12.626;2022-11-13T07:59:11;205.53;;;33.40;;
13331;SDS011;6735;51.456;12.626;2022-11-13T08:01:36;206.30;;;32.47;;
13331;SDS011;6735;51.456;12.626;2022-11-13T08:04:02;85.53;;;27.17;;
13331;SDS011;6735;51.456;12.626;2022-11-13T08:06:28;109.83;;;28.27;;
13331;SDS011;6735;51.456;12.626;2022-11-13T08:08:53;81.00;;;26.90;;
13331;SDS011;6735;51.456;12.626;2022-11-13T08:11:19;105.17;;;26.43;;
13331;SDS011;6735;51.456;12.626;2022-11-13T08:13:45;67.67;;;26.70;;
13331;SDS011;6735;51.456;12.626;2022-11-13T08:16:10;82.33;;;28.10;;
13331;SDS011;6735;51.456;12.626;2022-11-13T08:18:36;68.63;;;27.47;;
13331;SDS011;6735;51.456;12.626;2022-11-13T08:21:02;66.20;;;30.23;;
13331;SDS011;6735;51.456;12.626;2022-11-13T08:23:29;58.17;;;28.33;;
13331;SDS011;6735;51.456;12.626;2022-11-13T08:25:55;53.13;;;26.07;;
13331;SDS011;6735;51.456;12.626;2022-11-13T08:28:20;53.87;;;26.63;;
13331;SDS011;6735;51.456;12.626;2022-11-13T08:30:46;53.13;;;27.87;;
13331;SDS011;6735;51.456;12.626;2022-11-13T08:33:11;49.20;;;27.73;;
13331;SDS011;6735;51.456;12.626;2022-11-13T08:35:37;42.20;;;25.13;;
13331;SDS011;6735;51.456;12.626;2022-11-13T08:38:07;45.07;;;26.23;;
13331;SDS011;6735;51.456;12.626;2022-11-13T08:40:33;44.63;;;27.23;;
13331;SDS011;6735;51.456;12.626;2022-11-13T08:43:01;41.87;;;26.20;;
13331;SDS011;6735;51.456;12.626;2022-11-13T08:45:28;46.07;;;27.90;;
13331;SDS011;6735;51.456;12.626;2022-11-13T08:47:58;40.47;;;28.37;;
13331;SDS011;6735;51.456;12.626;2022-11-13T08:50:25;38.50;;;25.97;;
13331;SDS011;6735;51.456;12.626;2022-11-13T08:52:54;39.17;;;25.30;;
13331;SDS011;6735;51.456;12.626;2022-11-13T08:55:21;39.33;;;27.47;;
13331;SDS011;6735;51.456;12.626;2022-11-13T08:57:46;40.70;;;27.17;;
13331;SDS011;6735;51.456;12.626;2022-11-13T09:00:12;42.10;;;26.77;;
13331;SDS011;6735;51.456;12.626;2022-11-13T09:02:38;36.70;;;26.00;;
13331;SDS011;6735;51.456;12.626;2022-11-13T09:05:04;39.87;;;27.77;;
13331;SDS011;6735;51.456;12.626;2022-11-13T09:07:30;39.57;;;26.60;;
13331;SDS011;6735;51.456;12.626;2022-11-13T09:09:55;38.87;;;27.13;;
13331;SDS011;6735;51.456;12.626;2022-11-13T09:12:21;36.90;;;26.63;;
13331;SDS011;6735;51.456;12.626;2022-11-13T09:14:46;38.47;;;28.40;;
13331;SDS011;6735;51.456;12.626;2022-11-13T09:17:12;41.93;;;27.23;;
13331;SDS011;6735;51.456;12.626;2022-11-13T09:19:38;38.43;;;27.10;;
13331;SDS011;6735;51.456;12.626;2022-11-13T09:22:03;42.17;;;28.83;;
13331;SDS011;6735;51.456;12.626;2022-11-13T09:24:29;47.17;;;32.43;;
13331;SDS011;6735;51.456;12.626;2022-11-13T09:26:55;38.30;;;28.37;;
13331;SDS011;6735;51.456;12.626;2022-11-13T09:29:20;38.43;;;28.27;;
13331;SDS011;6735;51.456;12.626;2022-11-13T09:31:47;38.50;;;27.67;;
13331;SDS011;6735;51.456;12.626;2022-11-13T09:34:13;40.37;;;28.70;;
13331;SDS011;6735;51.456;12.626;2022-11-13T09:36:39;40.47;;;27.87;;
13331;SDS011;6735;51.456;12.626;2022-11-13T09:39:05;37.53;;;28.43;;
13331;SDS011;6735;51.456;12.626;2022-11-13T09:41:33;31.57;;;25.87;;
13331;SDS011;6735;51.456;12.626;2022-11-13T09:44:06;35.63;;;28.13;;
13331;SDS011;6735;51.456;12.626;2022-11-13T09:46:44;33.00;;;25.93;;
13331;SDS011;6735;51.456;12.626;2022-11-13T09:51:41;32.57;;;24.53;;
13331;SDS011;6735;51.456;12.626;2022-11-13T09:54:15;30.93;;;23.43;;
13331;SDS011;6735;51.456;12.626;2022-11-13T10:01:48;31.77;;;25.90;;
13331;SDS011;6735;51.456;12.626;2022-11-13T10:04:17;28.70;;;24.27;;
13331;SDS011;6735;51.456;12.626;2022-11-13T10:07:09;30.67;;;25.50;;
13331;SDS011;6735;51.456;12.626;2022-11-13T10:09:44;28.33;;;24.87;;
13331;SDS011;6735;51.456;12.626;2022-11-13T10:12:26;35.53;;;30.17;;
13331;SDS011;6735;51.456;12.626;2022-11-13T10:14:54;28.80;;;25.00;;
13331;SDS011;6735;51.456;12.626;2022-11-13T10:17:40;30.73;;;27.13;;
13331;SDS011;6735;51.456;12.626;2022-11-13T10:20:14;29.90;;;26.23;;
13331;SDS011;6735;51.456;12.626;2022-11-13T10:22:55;40.97;;;35.47;;
13331;SDS011;6735;51.456;12.626;2022-11-13T10:25:34;30.13;;;26.07;;
13331;SDS011;6735;51.456;12.626;2022-11-13T10:28:04;29.73;;;26.27;;
13331;SDS011;6735;51.456;12.626;2022-11-13T10:30:44;29.77;;;25.77;;
13331;SDS011;6735;51.456;12.626;2022-11-13T10:33:13;28.83;;;24.17;;
13331;SDS011;6735;51.456;12.626;2022-11-13T10:35:51;28.53;;;25.20;;
13331;SDS011;6735;51.456;12.626;2022-11-13T10:41:28;29.37;;;25.37;;
13331;SDS011;6735;51.456;12.626;2022-11-13T10:43:55;29.47;;;23.97;;
13331;SDS011;6735;51.456;12.626;2022-11-13T10:46:50;31.93;;;25.97;;
13331;SDS011;6735;51.456;12.626;2022-11-13T10:49:19;32.73;;;25.77;;
13331;SDS011;6735;51.456;12.626;2022-11-13T10:51:53;36.47;;;31.60;;
13331;SDS011;6735;51.456;12.626;2022-11-13T10:59:22;29.50;;;24.00;;
13331;SDS011;6735;51.456;12.626;2022-11-13T11:01:49;27.73;;;24.10;;
13331;SDS011;6735;51.456;12.626;2022-11-13T11:06:45;28.43;;;24.27;;
13331;SDS011;6735;51.456;12.626;2022-11-13T11:11:57;30.97;;;26.20;;
13331;SDS011;6735;51.456;12.626;2022-11-13T11:26:41;28.13;;;23.77;;
13331;SDS011;6735;51.456;12.626;2022-11-13T11:31:46;32.03;;;26.20;;
13331;SDS011;6735;51.456;12.626;2022-11-13T11:39:41;35.30;;;27.53;;
13331;SDS011;6735;51.456;12.626;2022-11-13T11:42:27;32.40;;;27.73;;
13331;SDS011;6735;51.456;12.626;2022-11-13T11:47:32;33.13;;;27.60;;
13331;SDS011;6735;51.456;12.626;2022-11-13T11:49:58;32.07;;;28.17;;
13331;SDS011;6735;51.456;12.626;2022-11-13T11:52:47;33.63;;;27.93;;
13331;SDS011;6735;51.456;12.626;2022-11-13T12:04:13;29.60;;;26.40;;
13331;SDS011;6735;51.456;12.626;2022-11-13T12:09:29;30.90;;;26.00;;
13331;SDS011;6735;51.456;12.626;2022-11-13T12:12:11;29.33;;;25.70;;
13331;SDS011;6735;51.456;12.626;2022-11-13T12:15:21;28.20;;;24.77;;
13331;SDS011;6735;51.456;12.626;2022-11-13T12:17:54;29.50;;;24.70;;
13331;SDS011;6735;51.456;12.626;2022-11-13T12:20:34;28.77;;;25.43;;
13331;SDS011;6735;51.456;12.626;2022-11-13T12:26:02;30.67;;;27.37;;
13331;SDS011;6735;51.456;12.626;2022-11-13T12:31:20;28.03;;;25.03;;
13331;SDS011;6735;51.456;12.626;2022-11-13T12:34:00;27.63;;;24.63;;
13331;SDS011;6735;51.456;12.626;2022-11-13T12:36:39;28.50;;;24.10;;
13331;SDS011;6735;51.456;12.626;2022-11-13T12:42:02;31.53;;;27.03;;
13331;SDS011;6735;51.456;12.626;2022-11-13T12:47:28;31.93;;;28.43;;
13331;SDS011;6735;51.456;12.626;2022-11-13T12:50:04;27.30;;;24.30;;
13331;SDS011;6735;51.456;12.626;2022-11-13T12:52:56;26.47;;;23.67;;
13331;SDS011;6735;51.456;12.626;2022-11-13T12:55:27;24.00;;;21.40;;
13331;SDS011;6735;51.456;12.626;2022-11-13T12:57:56;25.23;;;22.57;;
13331;SDS011;6735;51.456;12.626;2022-11-13T13:00:32;29.50;;;26.03;;
13331;SDS011;6735;51.456;12.626;2022-11-13T13:05:51;24.50;;;21.90;;
13331;SDS011;6735;51.456;12.626;2022-11-13T13:16:03;23.83;;;20.70;;
13331;SDS011;6735;51.456;12.626;2022-11-13T13:23:34;24.20;;;21.63;;
13331;SDS011;6735;51.456;12.626;2022-11-13T13:26:20;23.03;;;20.60;;
13331;SDS011;6735;51.456;12.626;2022-11-13T13:28:52;22.10;;;19.73;;
13331;SDS011;6735;51.456;12.626;2022-11-13T13:33:58;21.93;;;19.40;;
13331;SDS011;6735;51.456;12.626;2022-11-13T13:49:56;20.53;;;18.43;;
13331;SDS011;6735;51.456;12.626;2022-11-13T13:52:28;21.97;;;19.67;;
13331;SDS011;6735;51.456;12.626;2022-11-13T13:54:56;21.63;;;19.30;;
13331;SDS011;6735;51.456;12.626;2022-11-13T13:57:25;22.87;;;20.47;;
13331;SDS011;6735;51.456;12.626;2022-11-13T13:59:52;22.73;;;20.40;;
13331;SDS011;6735;51.456;12.626;2022-11-13T14:02:19;22.73;;;20.33;;
13331;SDS011;6735;51.456;12.626;2022-11-13T14:04:50;20.30;;;18.17;;
13331;SDS011;6735;51.456;12.626;2022-11-13T14:09:49;23.50;;;19.77;;
13331;SDS011;6735;51.456;12.626;2022-11-13T14:12:32;21.40;;;19.10;;
13331;SDS011;6735;51.456;12.626;2022-11-13T14:14:57;22.10;;;19.53;;
13331;SDS011;6735;51.456;12.626;2022-11-13T14:17:23;21.83;;;19.53;;
13331;SDS011;6735;51.456;12.626;2022-11-13T14:19:53;21.87;;;19.57;;
13331;SDS011;6735;51.456;12.626;2022-11-13T14:22:20;21.43;;;18.83;;
13331;SDS011;6735;51.456;12.626;2022-11-13T14:24:48;23.33;;;19.37;;
13331;SDS011;6735;51.456;12.626;2022-11-13T14:27:18;21.97;;;18.53;;
13331;SDS011;6735;51.456;12.626;2022-11-13T14:29:48;21.00;;;18.80;;
13331;SDS011;6735;51.456;12.626;2022-11-13T14:32:21;21.70;;;19.30;;
13331;SDS011;6735;51.456;12.626;2022-11-13T14:34:51;20.00;;;17.90;;
13331;SDS011;6735;51.456;12.626;2022-11-13T14:37:26;21.17;;;18.60;;
13331;SDS011;6735;51.456;12.626;2022-11-13T14:39:55;20.37;;;18.27;;
13331;SDS011;6735;51.456;12.626;2022-11-13T14:42:25;21.23;;;18.97;;
13331;SDS011;6735;51.456;12.626;2022-11-13T14:48:50;21.60;;;19.30;;
13331;SDS011;6735;51.456;12.626;2022-11-13T14:50:49;20.87;;;18.73;;
13331;SDS011;6735;51.456;12.626;2022-11-13T14:53:27;21.40;;;19.20;;
13331;SDS011;6735;51.456;12.626;2022-11-13T14:55:59;20.90;;;18.70;;
13331;SDS011;6735;51.456;12.626;2022-11-13T14:58:33;21.43;;;19.20;;
13331;SDS011;6735;51.456;12.626;2022-11-13T15:03:46;21.40;;;19.20;;
13331;SDS011;6735;51.456;12.626;2022-11-13T15:08:39;20.73;;;18.67;;
13331;SDS011;6735;51.456;12.626;2022-11-13T15:11:07;19.67;;;17.60;;
13331;SDS011;6735;51.456;12.626;2022-11-13T15:13:36;21.67;;;19.10;;
13331;SDS011;6735;51.456;12.626;2022-11-13T15:16:02;33.13;;;26.20;;
13331;SDS011;6735;51.456;12.626;2022-11-13T15:18:28;22.67;;;20.17;;
13331;SDS011;6735;51.456;12.626;2022-11-13T15:20:54;22.93;;;20.43;;
13331;SDS011;6735;51.456;12.626;2022-11-13T15:23:19;22.63;;;20.33;;
13331;SDS011;6735;51.456;12.626;2022-11-13T15:25:48;23.53;;;21.03;;
13331;SDS011;6735;51.456;12.626;2022-11-13T15:28:13;23.63;;;21.17;;
13331;SDS011;6735;51.456;12.626;2022-11-13T15:30:39;24.47;;;21.00;;
13331;SDS011;6735;51.456;12.626;2022-11-13T15:33:11;23.90;;;21.40;;
13331;SDS011;6735;51.456;12.626;2022-11-13T15:35:39;26.60;;;22.97;;
13331;SDS011;6735;51.456;12.626;2022-11-13T15:38:07;25.80;;;21.93;;
13331;SDS011;6735;51.456;12.626;2022-11-13T15:40:33;23.10;;;20.40;;
13331;SDS011;6735;51.456;12.626;2022-11-13T15:42:59;23.00;;;20.60;;
13331;SDS011;6735;51.456;12.626;2022-11-13T15:45:25;24.07;;;21.37;;
13331;SDS011;6735;51.456;12.626;2022-11-13T15:47:51;23.97;;;21.10;;
13331;SDS011;6735;51.456;12.626;2022-11-13T15:50:17;24.53;;;20.67;;
13331;SDS011;6735;51.456;12.626;2022-11-13T15:52:46;23.57;;;20.47;;
13331;SDS011;6735;51.456;12.626;2022-11-13T15:55:19;24.63;;;21.07;;
13331;SDS011;6735;51.456;12.626;2022-11-13T15:57:49;24.10;;;20.97;;
13331;SDS011;6735;51.456;12.626;2022-11-13T16:00:16;24.57;;;21.97;;
13331;SDS011;6735;51.456;12.626;2022-11-13T16:02:45;23.67;;;21.03;;
13331;SDS011;6735;51.456;12.626;2022-11-13T16:05:14;24.10;;;20.77;;
13331;SDS011;6735;51.456;12.626;2022-11-13T16:07:40;25.87;;;20.50;;
13331;SDS011;6735;51.456;12.626;2022-11-13T16:10:07;24.20;;;20.63;;
13331;SDS011;6735;51.456;12.626;2022-11-13T16:12:34;23.47;;;20.53;;
13331;SDS011;6735;51.456;12.626;2022-11-13T16:15:00;21.50;;;19.20;;
13331;SDS011;6735;51.456;12.626;2022-11-13T16:17:25;21.37;;;18.77;;